Ansonville, North Carolina
Current Conditions -  °F | °C
As of 5:35 PM on Wednesday 22 Oct 2014 (Local Time) from KAFP Reporting Station
Scattered Clouds Scattered Clouds  
Wind Chill: 67°   Ceiling: Unl
Heat Index: 67°   Visibility: 10mi
Dew Point: 38°   Wind: 14mph
Humidity: 35%   Direction: 350°N
Pressure: 30.01"   Gusts: 18mph
Location:  35.1°N, 80.11°W
Report Text: KAFP 222135Z AUTO 35012G16KT 10SM SCT065 19/03 A3001 RMK AO2 T01920033
Loading
Personal Weather Stations






























Interactive Weather Map New forecast layout! Learn more

10-Day Weather Forecast

Advertisements
Track Severe Weather on mobile